createdAt,value
2023-01-20T00:00:25.139Z,100423.06
2023-01-20T00:02:57.440Z,100416.38
2023-01-20T00:05:27.221Z,100397.81
2023-01-20T00:07:56.849Z,100426.44
2023-01-20T00:10:26.751Z,100379.13
2023-01-20T00:12:57.365Z,100433.34
2023-01-20T00:15:26.990Z,100439.72
2023-01-20T00:18:00.685Z,100428.91
2023-01-20T00:20:30.389Z,100427.63
2023-01-20T00:23:00.109Z,100441.78
2023-01-20T00:25:29.846Z,100444.00
2023-01-20T00:27:59.500Z,100459.19
2023-01-20T00:30:29.243Z,100460.78
2023-01-20T00:33:01.740Z,100461.44
2023-01-20T00:35:31.422Z,100462.59
2023-01-20T00:38:01.069Z,100462.50
2023-01-20T00:40:30.640Z,100465.78
2023-01-20T00:43:00.269Z,100464.25
2023-01-20T00:45:29.885Z,100462.34
2023-01-20T00:48:02.138Z,100472.22
2023-01-20T00:50:31.762Z,100472.34
2023-01-20T00:53:01.449Z,100476.16
2023-01-20T00:55:31.058Z,100458.97
2023-01-20T00:58:00.691Z,100470.75
2023-01-20T01:00:30.523Z,100473.56
2023-01-20T01:03:02.737Z,100467.84
2023-01-20T01:05:32.387Z,100472.00
2023-01-20T01:08:02.064Z,100479.22
2023-01-20T01:10:31.754Z,100483.88
2023-01-20T01:13:01.787Z,100473.25
2023-01-20T01:15:31.797Z,100494.97
2023-01-20T01:18:04.421Z,100493.72
2023-01-20T01:20:34.412Z,100499.03
2023-01-20T01:23:04.037Z,100457.59
2023-01-20T01:25:33.689Z,100499.28
2023-01-20T01:28:03.290Z,100507.50
2023-01-20T01:30:32.979Z,100515.06
2023-01-20T01:33:05.307Z,100517.38
2023-01-20T01:35:35.079Z,100503.47
2023-01-20T01:38:04.747Z,100493.94
2023-01-20T01:40:35.597Z,100516.25
2023-01-20T01:43:05.257Z,100530.13
2023-01-20T01:45:35.810Z,100528.47
2023-01-20T01:48:12.270Z,100540.00
2023-01-20T01:50:48.338Z,100533.91
2023-01-20T01:53:18.507Z,100536.59
2023-01-20T01:55:52.807Z,100539.13
2023-01-20T01:58:27.331Z,100540.78
2023-01-20T02:00:57.171Z,100544.22
2023-01-20T02:03:34.437Z,100549.59
2023-01-20T02:06:05.344Z,100553.84
2023-01-20T02:08:35.092Z,100553.22
2023-01-20T02:11:04.688Z,100555.16
2023-01-20T02:13:34.662Z,100558.72
2023-01-20T02:16:13.142Z,100560.41
2023-01-20T02:19:02.983Z,100538.69
2023-01-20T02:21:57.418Z,100522.00
2023-01-20T02:25:03.796Z,100562.16
2023-01-20T02:28:04.363Z,100532.72
2023-01-20T02:31:01.472Z,100568.06
2023-01-20T02:33:39.574Z,100570.19
2023-01-20T02:36:12.501Z,100568.06
2023-01-20T02:38:50.102Z,100571.69
2023-01-20T02:41:24.414Z,100574.03
2023-01-20T02:44:00.553Z,100577.22
2023-01-20T02:46:36.451Z,100579.13
2023-01-20T02:49:15.366Z,100576.69
2023-01-20T02:51:50.822Z,100587.59
2023-01-20T02:54:23.238Z,100576.09
2023-01-20T02:56:55.562Z,100579.63
2023-01-20T02:59:28.394Z,100536.34
2023-01-20T03:02:02.689Z,100589.47
2023-01-20T03:04:41.326Z,100596.84
2023-01-20T03:07:14.247Z,100581.53
2023-01-20T03:09:47.685Z,100590.44
2023-01-20T03:12:22.467Z,100599.03
2023-01-20T03:14:52.566Z,100601.19
2023-01-20T03:17:22.678Z,100588.78
2023-01-20T03:19:55.005Z,100593.47
2023-01-20T03:22:25.120Z,100596.22
2023-01-20T03:24:55.426Z,100602.13
2023-01-20T03:27:25.123Z,100605.56
2023-01-20T03:29:54.796Z,100593.28
2023-01-20T03:32:27.018Z,100614.53
2023-01-20T03:34:59.769Z,100611.66
2023-01-20T03:37:29.783Z,100564.31
2023-01-20T03:39:59.528Z,100616.16
2023-01-20T03:42:36.461Z,100614.41
2023-01-20T03:45:11.547Z,100602.47
2023-01-20T03:47:58.021Z,100623.59
2023-01-20T03:50:42.578Z,100627.72
2023-01-20T03:53:20.943Z,100608.31
2023-01-20T03:55:54.447Z,100621.09
2023-01-20T03:58:29.832Z,100618.88
2023-01-20T04:01:00.680Z,100630.81
2023-01-20T04:03:34.081Z,100632.22
2023-01-20T04:06:08.945Z,100634.88
2023-01-20T04:08:42.638Z,100632.75
2023-01-20T04:11:12.528Z,100642.63
2023-01-20T04:13:42.281Z,100639.81
2023-01-20T04:16:16.855Z,100644.06
2023-01-20T04:18:49.424Z,100642.47
2023-01-20T04:21:27.772Z,100631.97
2023-01-20T04:24:03.631Z,100639.22
2023-01-20T04:26:33.374Z,100643.22
2023-01-20T04:29:11.067Z,100641.91
2023-01-20T04:31:42.447Z,100618.50
2023-01-20T04:34:16.369Z,100641.09
2023-01-20T04:36:48.577Z,100660.13
2023-01-20T04:39:18.276Z,100643.59
2023-01-20T04:41:48.760Z,100640.50
2023-01-20T04:44:18.426Z,100662.53
2023-01-20T04:46:48.138Z,100645.53
2023-01-20T04:49:17.831Z,100643.31
2023-01-20T04:51:50.021Z,100642.53
2023-01-20T04:54:19.625Z,100660.94
2023-01-20T04:56:50.848Z,100653.22
2023-01-20T04:59:20.483Z,100668.44
2023-01-20T05:01:50.243Z,100660.63
2023-01-20T05:04:19.945Z,100666.94
2023-01-20T05:06:52.209Z,100664.41
2023-01-20T05:09:22.168Z,100662.53
2023-01-20T05:11:51.788Z,100670.78
2023-01-20T05:14:21.384Z,100679.97
2023-01-20T05:16:51.013Z,100675.66
2023-01-20T05:19:20.781Z,100678.34
2023-01-20T05:21:53.082Z,100680.31
2023-01-20T05:24:23.014Z,100683.47
2023-01-20T05:26:52.648Z,100672.06
2023-01-20T05:29:22.236Z,100687.47
2023-01-20T05:31:51.838Z,100692.75
2023-01-20T05:34:21.458Z,100666.44
2023-01-20T05:36:57.109Z,100693.59
2023-01-20T05:39:26.852Z,100687.38
2023-01-20T05:41:56.484Z,100702.63
2023-01-20T05:44:26.103Z,100706.56
2023-01-20T05:46:55.929Z,100695.38
2023-01-20T05:49:25.589Z,100651.06
2023-01-20T05:51:57.808Z,100693.91
2023-01-20T05:54:28.341Z,100685.72
2023-01-20T05:56:59.058Z,100697.84
2023-01-20T05:59:29.059Z,100717.59
2023-01-20T06:01:58.976Z,100718.63
2023-01-20T06:04:28.621Z,100723.75
2023-01-20T06:07:00.908Z,100692.72
2023-01-20T06:09:30.604Z,100716.03
2023-01-20T06:12:00.236Z,100714.44
2023-01-20T06:14:29.875Z,100707.66
2023-01-20T06:16:59.502Z,100692.88
2023-01-20T06:19:29.104Z,100733.50
2023-01-20T06:22:01.384Z,100743.28
2023-01-20T06:24:31.083Z,100742.81
2023-01-20T06:27:00.789Z,100737.75
2023-01-20T06:29:30.432Z,100748.50
2023-01-20T06:32:00.180Z,100722.59
2023-01-20T06:34:29.815Z,100754.59
2023-01-20T06:37:02.317Z,100721.97
2023-01-20T06:39:32.340Z,100751.72
2023-01-20T06:42:02.884Z,100756.00
2023-01-20T06:44:33.916Z,100756.00
2023-01-20T06:47:03.645Z,100769.31
2023-01-20T06:49:33.649Z,100745.38
2023-01-20T06:52:06.591Z,100763.34
2023-01-20T06:54:36.257Z,100722.31
2023-01-20T06:57:06.142Z,100771.97
2023-01-20T06:59:35.801Z,100785.91
2023-01-20T07:02:05.556Z,100780.22
2023-01-20T07:04:35.295Z,100792.75
2023-01-20T07:07:07.591Z,100790.41
2023-01-20T07:09:37.260Z,100779.66
2023-01-20T07:12:07.141Z,100792.53
2023-01-20T07:14:36.824Z,100806.25
2023-01-20T07:17:06.711Z,100806.25
2023-01-20T07:19:36.337Z,100807.75
2023-01-20T07:22:08.728Z,100812.94
2023-01-20T07:24:38.660Z,100827.75
2023-01-20T07:27:08.519Z,100834.19
2023-01-20T07:29:38.390Z,100830.94
2023-01-20T07:32:08.508Z,100819.31
2023-01-20T07:34:38.363Z,100818.69
2023-01-20T07:37:10.990Z,100829.56
2023-01-20T07:39:42.290Z,100787.66
2023-01-20T07:42:12.372Z,100852.28
2023-01-20T07:44:42.042Z,100808.38
2023-01-20T07:47:11.751Z,100848.03
2023-01-20T07:49:41.437Z,100843.53
2023-01-20T07:52:13.704Z,100862.38
2023-01-20T07:54:43.361Z,100844.03
2023-01-20T07:57:13.044Z,100873.44
2023-01-20T07:59:42.694Z,100874.53
2023-01-20T08:02:12.653Z,100877.41
2023-01-20T08:04:43.229Z,100872.47
2023-01-20T08:07:15.591Z,100884.91
2023-01-20T08:09:45.205Z,100884.69
2023-01-20T08:12:14.833Z,100883.56
2023-01-20T08:14:44.482Z,100894.69
2023-01-20T08:17:14.166Z,100904.63
2023-01-20T08:19:43.790Z,100896.22
2023-01-20T08:22:16.353Z,100901.41
2023-01-20T08:24:45.973Z,100911.38
2023-01-20T08:27:15.659Z,100912.09
2023-01-20T08:29:45.440Z,100913.63
2023-01-20T08:32:15.091Z,100910.75
2023-01-20T08:34:44.733Z,100908.59
2023-01-20T08:37:16.968Z,100922.16
2023-01-20T08:39:46.663Z,100912.06
2023-01-20T08:42:16.378Z,100927.16
2023-01-20T08:44:47.436Z,100926.72
2023-01-20T08:47:17.071Z,100929.13
2023-01-20T08:49:46.669Z,100922.53
2023-01-20T08:52:18.918Z,100929.94
2023-01-20T08:54:48.679Z,100929.00
2023-01-20T08:57:18.335Z,100914.81
2023-01-20T08:59:48.812Z,100933.38
2023-01-20T09:02:18.600Z,100934.25
2023-01-20T09:04:50.112Z,100910.66
2023-01-20T09:07:23.129Z,100935.72
2023-01-20T09:09:52.947Z,100932.25
2023-01-20T09:12:22.643Z,100934.66
2023-01-20T09:14:52.877Z,100934.13
2023-01-20T09:17:22.512Z,100925.81
2023-01-20T09:19:52.148Z,100931.97
2023-01-20T09:22:24.430Z,100945.50
2023-01-20T09:24:54.827Z,100948.88
2023-01-20T09:27:25.489Z,100948.47
2023-01-20T09:29:55.155Z,100933.09
2023-01-20T09:32:24.809Z,100940.56
2023-01-20T09:34:54.594Z,100920.94
2023-01-20T09:37:39.367Z,100946.88
2023-01-20T09:40:27.166Z,100944.56
2023-01-20T09:43:23.319Z,100946.28
2023-01-20T09:45:59.328Z,100965.41
2023-01-20T09:48:49.832Z,100932.47
2023-01-20T09:51:39.160Z,100962.75
2023-01-20T09:54:17.886Z,100931.50
2023-01-20T09:56:51.161Z,100945.13
2023-01-20T09:59:27.690Z,100970.78
2023-01-20T10:02:01.001Z,100946.53
2023-01-20T10:04:38.841Z,100976.50
2023-01-20T10:07:15.638Z,100970.06
2023-01-20T10:09:53.067Z,100978.06
2023-01-20T10:12:30.070Z,100970.25
2023-01-20T10:15:04.958Z,100961.38
2023-01-20T10:17:38.731Z,100961.00
2023-01-20T10:20:15.697Z,100976.38
2023-01-20T10:22:50.685Z,100979.47
2023-01-20T10:25:25.706Z,100987.19
2023-01-20T10:27:58.903Z,100986.22
2023-01-20T10:30:34.387Z,100987.41
2023-01-20T10:33:11.580Z,101003.75
2023-01-20T10:35:45.235Z,101008.09
2023-01-20T10:38:23.871Z,100980.56
2023-01-20T10:41:01.410Z,101009.34
2023-01-20T10:43:31.092Z,100987.91
2023-01-20T10:46:19.509Z,101012.38
2023-01-20T10:49:21.241Z,100998.31
2023-01-20T10:52:00.044Z,101016.78
2023-01-20T10:54:40.590Z,100994.59
2023-01-20T10:57:16.021Z,101022.25
2023-01-20T10:59:48.473Z,101017.78
2023-01-20T11:02:22.088Z,101023.25
2023-01-20T11:04:57.820Z,101024.97
2023-01-20T11:07:28.795Z,101018.34
2023-01-20T11:09:58.519Z,101018.75
2023-01-20T11:12:35.698Z,100998.75
2023-01-20T11:15:17.717Z,101029.69
2023-01-20T11:17:47.492Z,101009.63
2023-01-20T11:20:22.413Z,101026.69
2023-01-20T11:22:52.783Z,101018.09
2023-01-20T11:25:28.388Z,101017.25
2023-01-20T11:28:02.865Z,101037.84
2023-01-20T11:30:35.055Z,101029.25
2023-01-20T11:33:11.973Z,101037.78
2023-01-20T11:35:41.646Z,101026.78
2023-01-20T11:38:25.754Z,101041.84
2023-01-20T11:40:57.392Z,101049.22
2023-01-20T11:43:34.552Z,101041.88
2023-01-20T11:46:16.379Z,101000.38
2023-01-20T11:48:46.152Z,101057.66
2023-01-20T11:51:25.457Z,101056.38
2023-01-20T11:54:09.774Z,101042.19
2023-01-20T11:56:43.679Z,101063.34
2023-01-20T11:59:27.089Z,101065.88
2023-01-20T12:02:02.076Z,101061.75
2023-01-20T12:05:07.456Z,101058.75
2023-01-20T12:07:40.544Z,101033.59
2023-01-20T12:10:19.184Z,101012.22
2023-01-20T12:12:54.356Z,101068.06
2023-01-20T12:15:29.799Z,101042.41
2023-01-20T12:18:04.375Z,101072.63
2023-01-20T12:20:54.046Z,101078.94
2023-01-20T12:23:36.010Z,101080.06
2023-01-20T12:26:07.561Z,101075.97
2023-01-20T12:28:45.720Z,101087.63
2023-01-20T12:31:20.956Z,101090.28
2023-01-20T12:33:53.434Z,101082.72
2023-01-20T12:36:47.668Z,101071.50
2023-01-20T12:39:38.401Z,101103.25
2023-01-20T12:42:38.496Z,101090.72
2023-01-20T12:45:21.936Z,101090.84
2023-01-20T12:48:08.530Z,101098.69
2023-01-20T12:50:53.744Z,101095.13
2023-01-20T12:53:39.419Z,101052.81
2023-01-20T12:56:21.029Z,101106.22
2023-01-20T12:59:00.485Z,101107.03
2023-01-20T13:01:47.655Z,101074.69
2023-01-20T13:04:47.015Z,101110.69
2023-01-20T13:07:25.285Z,101108.97
2023-01-20T13:10:19.300Z,101117.50
2023-01-20T13:12:58.813Z,101075.09
2023-01-20T13:15:32.038Z,101122.78
2023-01-20T13:18:20.052Z,101092.84
2023-01-20T13:20:55.081Z,101125.31
2023-01-20T13:23:29.064Z,101060.97
2023-01-20T13:26:00.560Z,101110.06
2023-01-20T13:28:32.873Z,101126.31
2023-01-20T13:31:04.374Z,101132.72
2023-01-20T13:33:40.654Z,101138.50
2023-01-20T13:36:21.870Z,101132.03
2023-01-20T13:38:53.543Z,101130.84
2023-01-20T13:41:54.435Z,101129.41
2023-01-20T13:44:37.754Z,101138.41
2023-01-20T13:47:11.240Z,101150.97
2023-01-20T13:49:52.927Z,101141.16
2023-01-20T13:53:07.820Z,101147.88
2023-01-20T13:55:54.497Z,101148.53
2023-01-20T13:58:26.699Z,101147.00
2023-01-20T14:00:58.071Z,101124.91
2023-01-20T14:03:31.640Z,101152.16
2023-01-20T14:06:03.683Z,101150.09
2023-01-20T14:08:41.677Z,101184.13
2023-01-20T14:11:15.827Z,101184.13
2023-01-20T14:13:53.987Z,101186.97
2023-01-20T14:16:27.182Z,101177.19
2023-01-20T14:18:59.580Z,101182.56
2023-01-20T14:21:30.684Z,101191.56
2023-01-20T14:24:04.315Z,101195.50
2023-01-20T14:26:34.641Z,101197.88
2023-01-20T14:29:05.340Z,101201.22
2023-01-20T14:31:40.792Z,101207.09
2023-01-20T14:34:28.036Z,101201.03
2023-01-20T14:37:00.439Z,101201.03
2023-01-20T14:39:33.721Z,101217.16
2023-01-20T14:42:04.378Z,101218.31
2023-01-20T14:44:35.681Z,101209.63
2023-01-20T14:47:06.727Z,101230.28
2023-01-20T14:49:39.566Z,101223.31
2023-01-20T14:52:10.283Z,101237.75
2023-01-20T14:54:45.837Z,101211.59
2023-01-20T14:57:30.951Z,101228.94
2023-01-20T15:00:07.659Z,101201.66
2023-01-20T15:02:39.502Z,101253.47
2023-01-20T15:05:23.096Z,101240.22
2023-01-20T15:08:05.771Z,101248.03
2023-01-20T15:10:38.076Z,101257.72
2023-01-20T15:13:21.988Z,101275.50
2023-01-20T15:15:51.753Z,101274.41
2023-01-20T15:18:24.388Z,101249.09
2023-01-20T15:21:11.751Z,101274.75
2023-01-20T15:23:52.483Z,101296.88
2023-01-20T15:26:31.919Z,101293.50
2023-01-20T15:29:01.680Z,101297.56
2023-01-20T15:31:31.353Z,101300.81
2023-01-20T15:34:00.990Z,101294.66
2023-01-20T15:36:33.211Z,101311.41
2023-01-20T15:39:02.869Z,101316.22
2023-01-20T15:41:35.065Z,101314.56
2023-01-20T15:44:04.746Z,101327.03
2023-01-20T15:46:34.624Z,101328.91
2023-01-20T15:49:04.312Z,101317.38
2023-01-20T15:51:33.999Z,101344.06
2023-01-20T15:54:03.620Z,101336.97
2023-01-20T15:56:38.308Z,101326.53
2023-01-20T15:59:14.736Z,101335.75
2023-01-20T16:01:47.231Z,101362.25
2023-01-20T16:04:17.143Z,101363.97
2023-01-20T16:06:47.611Z,101372.34
2023-01-20T16:09:20.089Z,101358.91
2023-01-20T16:11:52.405Z,101371.84
2023-01-20T16:14:22.246Z,101378.78
2023-01-20T16:16:51.894Z,101387.78
2023-01-20T16:19:21.700Z,101360.16
2023-01-20T16:21:51.350Z,101398.50
2023-01-20T16:24:21.014Z,101393.88
2023-01-20T16:26:53.261Z,101394.22
2023-01-20T16:29:22.878Z,101399.69
2023-01-20T16:31:52.578Z,101385.25
2023-01-20T16:34:22.275Z,101389.44
2023-01-20T16:36:51.952Z,101405.88
2023-01-20T16:39:21.603Z,101391.75
2023-01-20T16:41:53.801Z,101419.63
2023-01-20T16:44:23.615Z,101413.09
2023-01-20T16:46:53.251Z,101438.91
2023-01-20T16:49:22.923Z,101437.16
2023-01-20T16:51:52.602Z,101436.59
2023-01-20T16:54:22.307Z,101448.13
2023-01-20T16:56:54.647Z,101454.31
2023-01-20T16:59:25.942Z,101452.22
2023-01-20T17:01:56.101Z,101460.16
2023-01-20T17:04:25.931Z,101462.78
2023-01-20T17:06:55.949Z,101447.25
2023-01-20T17:09:25.791Z,101448.72
2023-01-20T17:11:58.033Z,101467.25
2023-01-20T17:14:27.707Z,101486.59
2023-01-20T17:16:59.732Z,101457.13
2023-01-20T17:19:32.144Z,101461.44
2023-01-20T17:22:01.882Z,101477.06
2023-01-20T17:24:33.080Z,101459.78
2023-01-20T17:27:05.560Z,101507.34
2023-01-20T17:29:35.599Z,101501.66
2023-01-20T17:32:05.538Z,101509.47
2023-01-20T17:34:35.414Z,101481.72
2023-01-20T17:37:05.065Z,101517.97
2023-01-20T17:39:34.680Z,101523.03
2023-01-20T17:42:07.451Z,101523.81
2023-01-20T17:44:37.919Z,101510.16
2023-01-20T17:47:08.164Z,101539.00
2023-01-20T17:49:38.026Z,101540.06
2023-01-20T17:52:07.999Z,101540.56
2023-01-20T17:54:38.068Z,101541.84
2023-01-20T17:57:10.516Z,101545.44
2023-01-20T17:59:40.157Z,101550.72
2023-01-20T18:02:11.874Z,101514.34
2023-01-20T18:04:41.516Z,101546.56
2023-01-20T18:07:11.408Z,101548.09
2023-01-20T18:09:43.013Z,101576.03
2023-01-20T18:12:15.756Z,101577.41
2023-01-20T18:14:45.599Z,101578.59
2023-01-20T18:17:15.208Z,101574.59
2023-01-20T18:19:44.847Z,101572.38
2023-01-20T18:22:15.197Z,101589.81
2023-01-20T18:24:45.102Z,101601.88
2023-01-20T18:27:18.818Z,101603.31
2023-01-20T18:29:51.569Z,101586.03
2023-01-20T18:32:21.485Z,101602.38
2023-01-20T18:34:51.366Z,101612.44
2023-01-20T18:37:20.966Z,101619.91
2023-01-20T18:39:50.852Z,101619.72
2023-01-20T18:42:23.294Z,101623.88
2023-01-20T18:44:52.929Z,101593.78
2023-01-20T18:47:22.606Z,101624.53
2023-01-20T18:49:52.241Z,101633.09
2023-01-20T18:52:22.161Z,101630.47
2023-01-20T18:54:52.110Z,101635.84
2023-01-20T18:57:24.624Z,101621.06
2023-01-20T18:59:54.322Z,101639.66
2023-01-20T19:02:24.013Z,101635.03
2023-01-20T19:04:53.652Z,101632.88
2023-01-20T19:07:23.744Z,101644.59
2023-01-20T19:09:53.760Z,101647.53
2023-01-20T19:12:26.450Z,101653.94
2023-01-20T19:14:56.143Z,101654.00
2023-01-20T19:17:26.817Z,101646.72
2023-01-20T19:19:56.441Z,101655.34
2023-01-20T19:22:26.391Z,101666.19
2023-01-20T19:24:56.045Z,101649.09
2023-01-20T19:27:28.269Z,101670.63
2023-01-20T19:29:57.891Z,101675.81
2023-01-20T19:32:27.538Z,101661.13
2023-01-20T19:34:57.188Z,101687.03
2023-01-20T19:37:27.938Z,101675.59
2023-01-20T19:39:59.735Z,101690.25
2023-01-20T19:42:32.966Z,101671.88
2023-01-20T19:45:02.625Z,101705.59
2023-01-20T19:47:34.114Z,101698.69
2023-01-20T19:50:04.106Z,101697.31
2023-01-20T19:52:33.725Z,101660.34
2023-01-20T19:55:04.761Z,101714.03
2023-01-20T19:57:36.960Z,101709.06
2023-01-20T20:00:07.860Z,101724.41
2023-01-20T20:02:41.512Z,101699.72
2023-01-20T20:05:12.387Z,101685.81
2023-01-20T20:07:42.319Z,101709.97
2023-01-20T20:10:14.454Z,101740.28
2023-01-20T20:12:47.246Z,101720.16
2023-01-20T20:15:17.333Z,101742.50
2023-01-20T20:17:49.130Z,101743.16
2023-01-20T20:20:19.550Z,101742.22
2023-01-20T20:22:49.254Z,101753.19
2023-01-20T20:25:18.997Z,101729.44
2023-01-20T20:27:51.207Z,101760.75
2023-01-20T20:30:21.561Z,101765.84
2023-01-20T20:32:51.406Z,101767.53
2023-01-20T20:35:21.364Z,101772.44
2023-01-20T20:37:51.475Z,101780.97
2023-01-20T20:40:24.952Z,101725.91
2023-01-20T20:42:59.035Z,101740.91
2023-01-20T20:45:28.743Z,101792.03
2023-01-20T20:47:59.816Z,101788.00
2023-01-20T20:50:30.004Z,101772.66
2023-01-20T20:53:00.385Z,101795.41
2023-01-20T20:55:29.998Z,101786.97
2023-01-20T20:58:02.387Z,101801.63
2023-01-20T21:00:32.291Z,101782.16
2023-01-20T21:03:01.923Z,101788.19
2023-01-20T21:05:31.579Z,101786.94
2023-01-20T21:08:01.264Z,101797.00
2023-01-20T21:10:31.014Z,101808.72
2023-01-20T21:13:07.005Z,101799.97
2023-01-20T21:15:37.828Z,101809.16
2023-01-20T21:18:08.164Z,101799.09
2023-01-20T21:20:37.796Z,101823.91
2023-01-20T21:23:08.369Z,101822.47
2023-01-20T21:25:38.021Z,101824.53
2023-01-20T21:28:10.575Z,101834.06
2023-01-20T21:30:40.685Z,101805.47
2023-01-20T21:33:15.157Z,101841.06
2023-01-20T21:35:44.854Z,101840.09
2023-01-20T21:38:14.595Z,101819.50
2023-01-20T21:40:59.829Z,101838.91
2023-01-20T21:43:45.939Z,101845.66
2023-01-20T21:46:15.879Z,101821.16
2023-01-20T21:48:58.090Z,101844.56
2023-01-20T21:51:40.426Z,101844.22
2023-01-20T21:54:10.239Z,101855.03
2023-01-20T21:56:39.902Z,101855.66
2023-01-20T21:59:12.263Z,101856.41
2023-01-20T22:01:42.030Z,101865.25
2023-01-20T22:04:11.640Z,101822.75
2023-01-20T22:06:41.272Z,101848.94
2023-01-20T22:09:11.010Z,101875.16
2023-01-20T22:11:40.749Z,101855.38
2023-01-20T22:14:14.376Z,101881.41
2023-01-20T22:16:44.147Z,101873.19
2023-01-20T22:19:14.698Z,101886.38
2023-01-20T22:21:44.794Z,101887.41
2023-01-20T22:24:14.449Z,101888.56
2023-01-20T22:26:44.193Z,101887.81
2023-01-20T22:29:16.530Z,101874.00
2023-01-20T22:31:46.571Z,101909.91
2023-01-20T22:34:16.524Z,101909.53
2023-01-20T22:36:46.799Z,101900.38
2023-01-20T22:39:17.560Z,101905.78
2023-01-20T22:41:47.280Z,101919.22
2023-01-20T22:44:19.532Z,101902.66
2023-01-20T22:46:49.227Z,101900.16
2023-01-20T22:49:18.940Z,101932.25
2023-01-20T22:51:48.726Z,101931.00
2023-01-20T22:54:18.451Z,101933.50
2023-01-20T22:56:48.118Z,101928.44
2023-01-20T22:59:20.361Z,101925.44
2023-01-20T23:01:50.053Z,101938.88
2023-01-20T23:04:19.755Z,101936.53
2023-01-20T23:06:49.611Z,101930.88
2023-01-20T23:09:19.281Z,101946.97
2023-01-20T23:11:50.206Z,101958.88
2023-01-20T23:14:42.446Z,101953.00
2023-01-20T23:17:12.077Z,101951.38
2023-01-20T23:19:41.737Z,101955.38
2023-01-20T23:22:11.381Z,101957.41
2023-01-20T23:24:41.180Z,101914.75
2023-01-20T23:27:10.860Z,101980.38
2023-01-20T23:29:43.083Z,101975.84
2023-01-20T23:32:13.032Z,101969.72
2023-01-20T23:34:42.787Z,101981.47
2023-01-20T23:37:12.409Z,101984.78
2023-01-20T23:39:42.064Z,101984.63
2023-01-20T23:42:11.718Z,101994.31
2023-01-20T23:44:43.911Z,101993.56
2023-01-20T23:47:13.574Z,101990.28
2023-01-20T23:49:43.200Z,101981.25
2023-01-20T23:52:12.891Z,101980.50
2023-01-20T23:54:42.595Z,101983.53
2023-01-20T23:57:12.234Z,102004.38
2023-01-20T23:59:44.781Z,102007.50
